createdAt,value
2022-11-17T00:01:26.583Z,6.28
2022-11-17T00:03:55.826Z,6.22
2022-11-17T00:06:25.174Z,6.27
2022-11-17T00:08:53.024Z,6.22
2022-11-17T00:11:19.572Z,6.20
2022-11-17T00:14:04.669Z,6.22
2022-11-17T00:16:31.263Z,6.14
2022-11-17T00:19:16.519Z,6.13
2022-11-17T00:21:44.495Z,6.07
2022-11-17T00:24:11.083Z,5.93
2022-11-17T00:27:00.620Z,5.81
2022-11-17T00:29:27.684Z,5.90
2022-11-17T00:32:12.834Z,6.01
2022-11-17T00:34:39.388Z,6.00
2022-11-17T00:37:07.175Z,6.05
2022-11-17T00:39:35.535Z,6.13
2022-11-17T00:42:02.339Z,6.14
2022-11-17T00:44:29.612Z,6.11
2022-11-17T00:46:56.591Z,6.13
2022-11-17T00:49:26.396Z,6.08
2022-11-17T00:51:53.732Z,6.00
2022-11-17T00:54:21.103Z,6.05
2022-11-17T00:56:48.120Z,6.08
2022-11-17T00:59:15.583Z,6.14
2022-11-17T01:01:42.963Z,6.15
2022-11-17T01:04:09.756Z,6.15
2022-11-17T01:06:37.607Z,6.12
2022-11-17T01:09:13.170Z,6.06
2022-11-17T01:11:40.260Z,5.98
2022-11-17T01:14:07.107Z,6.00
2022-11-17T01:16:37.116Z,6.00
2022-11-17T01:19:04.351Z,5.89
2022-11-17T01:21:31.641Z,5.93
2022-11-17T01:23:59.875Z,5.97
2022-11-17T01:26:34.995Z,5.91
2022-11-17T01:29:02.926Z,5.92
2022-11-17T01:31:32.649Z,5.90
2022-11-17T01:34:00.054Z,5.84
2022-11-17T01:36:56.921Z,5.90
2022-11-17T01:39:25.063Z,5.79
2022-11-17T01:41:53.118Z,5.77
2022-11-17T01:44:44.595Z,5.86
2022-11-17T01:47:21.935Z,5.89
2022-11-17T01:49:57.664Z,5.87
2022-11-17T01:52:25.610Z,5.84
2022-11-17T01:54:55.336Z,5.84
2022-11-17T01:57:27.309Z,5.84
2022-11-17T02:00:06.996Z,5.66
2022-11-17T02:02:35.221Z,5.77
2022-11-17T02:05:16.770Z,5.87
2022-11-17T02:07:46.147Z,5.93
2022-11-17T02:10:12.825Z,5.82
2022-11-17T02:12:40.064Z,5.81
2022-11-17T02:15:06.964Z,5.76
2022-11-17T02:17:39.116Z,5.72
2022-11-17T02:20:11.916Z,5.78
2022-11-17T02:23:10.509Z,5.73
2022-11-17T02:25:43.258Z,5.70
2022-11-17T02:28:20.887Z,5.63
2022-11-17T02:31:22.660Z,5.65
2022-11-17T02:34:00.505Z,5.69
2022-11-17T02:37:07.531Z,5.67
2022-11-17T02:39:43.406Z,5.57
2022-11-17T02:42:46.372Z,5.64
2022-11-17T02:45:22.571Z,5.67
2022-11-17T02:47:54.258Z,5.57
2022-11-17T02:50:28.051Z,5.61
2022-11-17T02:52:55.276Z,5.73
2022-11-17T02:55:21.818Z,5.64
2022-11-17T02:57:49.669Z,5.69
2022-11-17T03:00:20.399Z,5.64
2022-11-17T03:03:21.197Z,5.82
2022-11-17T03:05:56.704Z,5.89
2022-11-17T03:08:36.792Z,5.80
2022-11-17T03:11:06.641Z,5.56
2022-11-17T03:13:54.567Z,5.71
2022-11-17T03:16:24.009Z,5.75
2022-11-17T03:19:04.184Z,5.63
2022-11-17T03:21:41.338Z,5.39
2022-11-17T03:24:08.194Z,5.54
2022-11-17T03:26:49.247Z,5.52
2022-11-17T03:29:19.222Z,5.58
2022-11-17T03:31:49.029Z,5.51
2022-11-17T03:34:22.159Z,5.57
2022-11-17T03:36:58.158Z,5.56
2022-11-17T03:39:32.058Z,5.63
2022-11-17T03:42:21.252Z,5.58
2022-11-17T03:44:53.826Z,5.58
2022-11-17T03:47:25.275Z,5.57
2022-11-17T03:50:02.069Z,5.68
2022-11-17T03:52:33.060Z,5.61
2022-11-17T03:55:00.417Z,5.64
2022-11-17T03:57:51.588Z,5.47
2022-11-17T04:00:19.595Z,5.62
2022-11-17T04:02:49.383Z,5.71
2022-11-17T04:05:17.496Z,5.65
2022-11-17T04:07:46.941Z,5.47
2022-11-17T04:10:22.138Z,5.64
2022-11-17T04:13:09.054Z,5.39
2022-11-17T04:15:54.225Z,5.34
2022-11-17T04:18:21.777Z,5.41
2022-11-17T04:20:56.094Z,5.46
2022-11-17T04:23:23.978Z,5.58
2022-11-17T04:26:13.905Z,5.60
2022-11-17T04:28:47.499Z,5.75
2022-11-17T04:31:20.264Z,5.78
2022-11-17T04:33:52.301Z,5.80
2022-11-17T04:36:22.722Z,5.77
2022-11-17T04:38:51.961Z,5.58
2022-11-17T04:41:38.449Z,5.57
2022-11-17T04:44:07.302Z,5.55
2022-11-17T04:46:35.528Z,5.39
2022-11-17T04:49:04.147Z,5.43
2022-11-17T04:51:32.075Z,5.55
2022-11-17T04:53:59.097Z,5.56
2022-11-17T04:56:26.296Z,5.44
2022-11-17T04:58:53.331Z,5.65
2022-11-17T05:01:20.983Z,5.55
2022-11-17T05:03:56.340Z,5.70
2022-11-17T05:06:28.004Z,5.67
2022-11-17T05:08:56.301Z,5.67
2022-11-17T05:11:43.934Z,5.75
2022-11-17T05:14:11.456Z,5.75
2022-11-17T05:16:56.610Z,5.73
2022-11-17T05:19:25.770Z,5.77
2022-11-17T05:21:53.027Z,5.77
2022-11-17T05:24:20.387Z,5.80
2022-11-17T05:26:48.548Z,5.88
2022-11-17T05:29:18.478Z,5.85
2022-11-17T05:31:45.719Z,5.72
2022-11-17T05:34:14.075Z,5.69
2022-11-17T05:36:41.758Z,5.65
2022-11-17T05:39:09.283Z,5.77
2022-11-17T05:41:37.202Z,5.83
2022-11-17T05:44:04.437Z,5.79
2022-11-17T05:46:31.181Z,5.74
2022-11-17T05:48:57.868Z,5.64
2022-11-17T05:51:24.935Z,5.61
2022-11-17T05:53:51.552Z,5.65
2022-11-17T05:56:33.569Z,5.56
2022-11-17T05:59:15.236Z,5.57
2022-11-17T06:02:17.789Z,5.57
2022-11-17T06:04:46.153Z,5.53
2022-11-17T06:07:12.826Z,5.55
2022-11-17T06:09:42.066Z,5.52
2022-11-17T06:12:09.250Z,5.55
2022-11-17T06:14:37.566Z,5.56
2022-11-17T06:17:21.598Z,5.48
2022-11-17T06:19:55.838Z,5.47
2022-11-17T06:22:27.079Z,5.47
2022-11-17T06:24:54.965Z,5.45
2022-11-17T06:27:22.047Z,5.37
2022-11-17T06:29:49.538Z,5.45
2022-11-17T06:32:18.152Z,5.39
2022-11-17T06:34:55.818Z,5.41
2022-11-17T06:37:23.821Z,5.51
2022-11-17T06:39:50.647Z,5.74
2022-11-17T06:42:40.253Z,5.85
2022-11-17T06:45:07.573Z,5.86
2022-11-17T06:47:37.150Z,5.65
2022-11-17T06:50:04.524Z,5.61
2022-11-17T06:52:31.272Z,5.64
2022-11-17T06:54:57.868Z,5.53
2022-11-17T06:57:24.467Z,5.52
2022-11-17T06:59:52.534Z,5.69
2022-11-17T07:02:19.357Z,5.78
2022-11-17T07:04:45.996Z,5.81
2022-11-17T07:07:13.049Z,5.71
2022-11-17T07:09:39.673Z,5.77
2022-11-17T07:12:06.325Z,5.85
2022-11-17T07:14:32.856Z,5.66
2022-11-17T07:16:59.557Z,5.65
2022-11-17T07:19:26.126Z,5.88
2022-11-17T07:21:52.975Z,6.00
2022-11-17T07:24:19.610Z,6.05
2022-11-17T07:26:46.276Z,5.99
2022-11-17T07:29:12.966Z,5.85
2022-11-17T07:31:39.596Z,5.99
2022-11-17T07:34:06.324Z,5.91
2022-11-17T07:36:33.240Z,6.05
2022-11-17T07:38:59.890Z,6.05
2022-11-17T07:41:26.531Z,6.00
2022-11-17T07:43:53.113Z,6.06
2022-11-17T07:46:19.651Z,5.85
2022-11-17T07:48:46.668Z,6.04
2022-11-17T07:51:14.188Z,5.86
2022-11-17T07:53:40.908Z,5.76
2022-11-17T07:56:10.721Z,5.70
2022-11-17T07:58:38.097Z,5.83
2022-11-17T08:01:10.507Z,6.02
2022-11-17T08:03:37.654Z,6.06
2022-11-17T08:06:06.516Z,5.88
2022-11-17T08:08:34.215Z,5.87
2022-11-17T08:11:06.160Z,5.92
2022-11-17T08:13:33.333Z,5.66
2022-11-17T08:16:00.196Z,5.57
2022-11-17T08:18:27.089Z,5.63
2022-11-17T08:21:01.670Z,5.74
2022-11-17T08:23:28.442Z,5.89
2022-11-17T08:25:55.048Z,5.89
2022-11-17T08:28:22.459Z,5.97
2022-11-17T08:30:49.135Z,6.02
2022-11-17T08:33:15.806Z,6.13
2022-11-17T08:35:42.522Z,6.14
2022-11-17T08:38:11.609Z,6.16
2022-11-17T08:40:38.668Z,6.01
2022-11-17T08:43:05.340Z,5.86
2022-11-17T08:45:34.328Z,5.93
2022-11-17T08:48:01.204Z,6.02
2022-11-17T08:50:28.170Z,6.13
2022-11-17T08:52:54.748Z,6.10
2022-11-17T08:55:21.390Z,6.10
2022-11-17T08:57:47.962Z,6.04
2022-11-17T09:00:15.329Z,6.15
2022-11-17T09:02:42.023Z,6.14
2022-11-17T09:05:08.917Z,6.20
2022-11-17T09:07:35.774Z,6.21
2022-11-17T09:10:05.811Z,6.02
2022-11-17T09:12:32.507Z,6.24
2022-11-17T09:14:59.076Z,6.19
2022-11-17T09:17:25.756Z,6.25
2022-11-17T09:19:52.443Z,6.23
2022-11-17T09:22:19.825Z,6.50
2022-11-17T09:24:46.447Z,6.26
2022-11-17T09:27:13.824Z,6.26
2022-11-17T09:29:43.257Z,6.19
2022-11-17T09:32:09.784Z,6.20
2022-11-17T09:34:36.496Z,6.41
2022-11-17T09:37:03.164Z,6.47
2022-11-17T09:39:29.842Z,6.59
2022-11-17T09:41:57.453Z,6.51
2022-11-17T09:44:29.774Z,6.55
2022-11-17T09:47:11.790Z,6.53
2022-11-17T09:49:45.621Z,6.74
2022-11-17T09:52:25.703Z,6.64
2022-11-17T09:54:56.757Z,6.66
2022-11-17T09:57:33.960Z,6.51
2022-11-17T10:00:06.034Z,6.73
2022-11-17T10:02:33.321Z,6.69
2022-11-17T10:05:00.596Z,6.65
2022-11-17T10:07:29.711Z,6.58
2022-11-17T10:09:58.442Z,6.66
2022-11-17T10:12:52.575Z,6.94
2022-11-17T10:15:28.450Z,6.84
2022-11-17T10:17:55.268Z,6.80
2022-11-17T10:20:22.269Z,7.07
2022-11-17T10:22:52.082Z,7.10
2022-11-17T10:25:36.703Z,7.01
2022-11-17T10:28:04.713Z,7.06
2022-11-17T10:30:31.384Z,7.11
2022-11-17T10:33:00.395Z,7.09
2022-11-17T10:35:33.816Z,7.20
2022-11-17T10:38:03.455Z,7.10
2022-11-17T10:40:32.541Z,7.40
2022-11-17T10:43:22.058Z,7.43
2022-11-17T10:45:50.415Z,7.47
2022-11-17T10:48:24.273Z,7.48
2022-11-17T10:50:53.085Z,7.44
2022-11-17T10:53:44.881Z,7.24
2022-11-17T10:56:21.823Z,6.77
2022-11-17T10:58:56.785Z,7.00
2022-11-17T11:01:38.519Z,7.16
2022-11-17T11:04:07.822Z,7.26
2022-11-17T11:06:35.493Z,7.31
2022-11-17T11:09:09.654Z,7.52
2022-11-17T11:11:46.876Z,7.63
2022-11-17T11:14:38.410Z,7.44
2022-11-17T11:17:13.496Z,7.56
2022-11-17T11:19:42.712Z,7.56
2022-11-17T11:22:53.807Z,7.31
2022-11-17T11:25:46.270Z,7.29
2022-11-17T11:28:15.941Z,7.20
2022-11-17T11:31:21.439Z,7.29
2022-11-17T11:34:02.243Z,7.60
2022-11-17T11:36:44.499Z,7.67
2022-11-17T11:39:33.796Z,7.72
2022-11-17T11:42:37.472Z,7.50
2022-11-17T11:48:17.572Z,7.30
2022-11-17T11:50:57.676Z,7.46
2022-11-17T11:53:31.799Z,7.29
2022-11-17T11:56:30.534Z,7.27
2022-11-17T11:59:20.570Z,7.38
2022-11-17T12:01:52.958Z,7.51
2022-11-17T12:04:40.079Z,7.36
2022-11-17T12:07:19.747Z,7.17
2022-11-17T12:10:00.126Z,7.15
2022-11-17T12:12:46.525Z,7.09
2022-11-17T12:15:19.058Z,7.53
2022-11-17T12:18:13.985Z,7.51
2022-11-17T12:20:51.550Z,7.48
2022-11-17T12:23:36.387Z,7.52
2022-11-17T12:26:03.568Z,7.55
2022-11-17T12:28:38.185Z,7.93
2022-11-17T12:31:10.202Z,7.92
2022-11-17T12:33:52.329Z,8.08
2022-11-17T12:36:30.245Z,8.02
2022-11-17T12:39:18.492Z,7.77
2022-11-17T12:41:48.223Z,7.66
2022-11-17T12:44:45.731Z,7.86
2022-11-17T12:47:29.272Z,8.00
2022-11-17T12:50:18.384Z,7.84
2022-11-17T12:53:09.065Z,7.78
2022-11-17T12:55:35.781Z,7.78
2022-11-17T12:58:32.021Z,7.76
2022-11-17T13:01:04.396Z,7.46
2022-11-17T13:03:41.355Z,7.80
2022-11-17T13:06:34.350Z,7.84
2022-11-17T13:09:06.088Z,8.19
2022-11-17T13:11:33.519Z,7.79
2022-11-17T13:14:13.198Z,7.70
2022-11-17T13:17:00.108Z,7.63
2022-11-17T13:19:34.715Z,7.50
2022-11-17T13:22:21.270Z,7.37
2022-11-17T13:24:49.854Z,7.05
2022-11-17T13:27:36.617Z,6.93
2022-11-17T13:30:21.495Z,6.86
2022-11-17T13:32:49.078Z,6.86
2022-11-17T13:35:25.329Z,6.91
2022-11-17T13:38:06.448Z,7.04
2022-11-17T13:40:35.638Z,6.81
2022-11-17T13:43:04.111Z,6.84
2022-11-17T13:45:34.051Z,6.88
2022-11-17T13:48:00.700Z,6.90
2022-11-17T13:50:27.270Z,6.81
2022-11-17T13:52:55.851Z,6.74
2022-11-17T13:55:24.599Z,6.75
2022-11-17T13:58:06.894Z,6.67
2022-11-17T14:00:37.204Z,6.62
2022-11-17T14:03:06.026Z,6.56
2022-11-17T14:05:33.808Z,6.44
2022-11-17T14:08:24.412Z,6.46
2022-11-17T14:11:09.788Z,6.59
2022-11-17T14:13:48.253Z,6.63
2022-11-17T14:16:26.654Z,6.60
2022-11-17T14:19:05.822Z,6.64
2022-11-17T14:21:33.334Z,6.77
2022-11-17T14:24:12.701Z,6.82
2022-11-17T14:26:45.983Z,6.73
2022-11-17T14:29:13.486Z,6.64
2022-11-17T14:31:40.105Z,6.75
2022-11-17T14:34:06.806Z,6.76
2022-11-17T14:36:33.608Z,6.72
2022-11-17T14:39:01.820Z,6.61
2022-11-17T14:41:28.990Z,6.40
2022-11-17T14:43:55.617Z,6.41
2022-11-17T14:46:26.623Z,6.30
2022-11-17T14:48:54.145Z,6.36
2022-11-17T14:51:21.436Z,6.05
2022-11-17T14:53:48.303Z,6.10
2022-11-17T14:56:18.001Z,6.07
2022-11-17T14:58:52.618Z,6.04
2022-11-17T15:01:25.605Z,5.89
2022-11-17T15:03:53.146Z,5.80
2022-11-17T15:06:20.461Z,5.80
2022-11-17T15:08:48.432Z,5.92
2022-11-17T15:11:17.878Z,5.84
2022-11-17T15:13:47.146Z,5.88
2022-11-17T15:16:14.280Z,5.96
2022-11-17T15:18:43.849Z,5.97
2022-11-17T15:21:10.944Z,5.92
2022-11-17T15:23:39.619Z,5.82
2022-11-17T15:26:08.672Z,5.84
2022-11-17T15:28:38.223Z,5.77
2022-11-17T15:31:19.353Z,5.82
2022-11-17T15:33:47.380Z,5.75
2022-11-17T15:36:17.226Z,5.51
2022-11-17T15:38:45.244Z,5.77
2022-11-17T15:41:21.125Z,5.64
2022-11-17T15:43:49.125Z,5.73
2022-11-17T15:46:17.673Z,5.76
2022-11-17T15:48:52.560Z,5.80
2022-11-17T15:51:24.853Z,5.69
2022-11-17T15:53:55.908Z,5.84
2022-11-17T15:56:36.568Z,5.86
2022-11-17T15:59:07.799Z,5.57
2022-11-17T16:01:36.896Z,5.76
2022-11-17T16:04:15.398Z,5.64
2022-11-17T16:06:43.744Z,5.60
2022-11-17T16:09:14.116Z,5.76
2022-11-17T16:11:41.261Z,5.59
2022-11-17T16:14:08.208Z,5.52
2022-11-17T16:16:39.079Z,5.75
2022-11-17T16:19:06.491Z,5.81
2022-11-17T16:21:33.624Z,5.73
2022-11-17T16:24:02.340Z,5.64
2022-11-17T16:26:30.121Z,5.85
2022-11-17T16:29:01.391Z,5.86
2022-11-17T16:31:30.180Z,5.71
2022-11-17T16:34:07.244Z,5.85
2022-11-17T16:36:37.962Z,5.70
2022-11-17T16:39:07.505Z,5.58
2022-11-17T16:41:36.553Z,5.79
2022-11-17T16:44:07.680Z,5.80
2022-11-17T16:46:34.342Z,5.76
2022-11-17T16:49:03.550Z,5.86
2022-11-17T16:51:30.448Z,5.91
2022-11-17T16:54:00.114Z,5.90
2022-11-17T16:56:27.014Z,5.89
2022-11-17T16:58:54.733Z,5.90
2022-11-17T17:01:24.096Z,5.99
2022-11-17T17:03:58.864Z,5.88
2022-11-17T17:06:26.017Z,6.01
2022-11-17T17:09:00.506Z,6.10
2022-11-17T17:11:29.223Z,5.99
2022-11-17T17:14:00.051Z,6.01
2022-11-17T17:16:26.694Z,6.00
2022-11-17T17:18:59.517Z,6.15
2022-11-17T17:21:28.098Z,6.29
2022-11-17T17:23:58.277Z,6.13
2022-11-17T17:26:27.805Z,6.10
2022-11-17T17:29:00.396Z,5.88
2022-11-17T17:31:34.853Z,6.06
2022-11-17T17:34:01.968Z,6.04
2022-11-17T17:36:37.682Z,6.14
2022-11-17T17:39:05.701Z,5.99
2022-11-17T17:41:39.942Z,5.79
2022-11-17T17:44:08.494Z,5.84
2022-11-17T17:46:44.465Z,5.90
2022-11-17T17:49:14.395Z,5.96
2022-11-17T17:51:44.172Z,6.14
2022-11-17T17:54:20.285Z,6.15
2022-11-17T17:56:49.983Z,6.10
2022-11-17T17:59:19.697Z,6.07
2022-11-17T18:01:51.722Z,6.07
2022-11-17T18:04:18.321Z,6.14
2022-11-17T18:06:48.679Z,6.08
2022-11-17T18:09:19.512Z,6.11
2022-11-17T18:11:52.536Z,6.11
2022-11-17T18:14:25.206Z,6.18
2022-11-17T18:16:52.172Z,6.25
2022-11-17T18:19:19.068Z,6.18
2022-11-17T18:21:48.984Z,6.19
2022-11-17T18:24:18.524Z,6.31
2022-11-17T18:26:45.102Z,6.37
2022-11-17T18:29:16.233Z,6.31
2022-11-17T18:31:46.636Z,6.40
2022-11-17T18:34:16.554Z,6.23
2022-11-17T18:36:43.135Z,6.36
2022-11-17T18:39:09.834Z,6.23
2022-11-17T18:41:37.593Z,6.15
2022-11-17T18:44:04.252Z,6.17
2022-11-17T18:46:32.340Z,6.33
2022-11-17T18:48:59.558Z,6.49
2022-11-17T18:51:30.780Z,6.20
2022-11-17T18:53:59.271Z,6.31
2022-11-17T18:56:37.427Z,6.37
2022-11-17T18:59:12.135Z,6.42
2022-11-17T19:01:42.895Z,6.46
2022-11-17T19:04:12.625Z,6.59
2022-11-17T19:06:42.265Z,6.66
2022-11-17T19:09:09.335Z,6.44
2022-11-17T19:11:38.503Z,6.24
2022-11-17T19:17:10.138Z,6.51
2022-11-17T19:19:37.081Z,6.45
2022-11-17T19:25:06.919Z,6.29
2022-11-17T19:27:33.696Z,6.16
2022-11-17T19:30:00.337Z,6.24
2022-11-17T19:32:27.049Z,6.04
2022-11-17T19:34:54.206Z,6.14
2022-11-17T19:37:21.336Z,6.30
2022-11-17T19:39:47.886Z,6.28
2022-11-17T19:42:14.480Z,6.23
2022-11-17T19:44:41.013Z,6.33
2022-11-17T19:47:07.675Z,6.44
2022-11-17T19:49:34.802Z,6.16
2022-11-17T19:52:01.712Z,6.14
2022-11-17T20:15:36.391Z,6.55
2022-11-17T20:18:05.499Z,6.52
2022-11-17T20:20:32.112Z,6.55
2022-11-17T20:22:58.823Z,6.60
2022-11-17T20:25:25.408Z,6.57
2022-11-17T20:27:52.108Z,6.50
2022-11-17T20:30:18.963Z,6.58
2022-11-17T20:32:45.515Z,6.41
2022-11-17T20:35:12.126Z,6.56
2022-11-17T20:37:38.842Z,6.66
2022-11-17T20:40:06.034Z,6.68
2022-11-17T20:42:32.714Z,6.63
2022-11-17T20:44:59.316Z,6.70
2022-11-17T20:47:27.507Z,6.69
2022-11-17T20:49:55.166Z,6.66
2022-11-17T20:52:21.913Z,6.69
2022-11-17T20:54:48.490Z,6.73
2022-11-17T20:57:15.188Z,6.72
2022-11-17T20:59:41.889Z,6.68
2022-11-17T21:02:10.715Z,6.69
2022-11-17T21:04:37.328Z,6.68
2022-11-17T21:07:04.337Z,6.74
2022-11-17T21:09:31.015Z,6.67
2022-11-17T21:11:57.625Z,6.65
2022-11-17T21:14:26.504Z,6.60
2022-11-17T21:16:54.599Z,6.68
2022-11-17T21:19:21.932Z,6.72
2022-11-17T21:21:50.350Z,6.63
2022-11-17T21:24:17.545Z,6.66
2022-11-17T21:26:44.128Z,6.80
2022-11-17T21:29:10.990Z,6.79
2022-11-17T21:31:37.758Z,6.75
2022-11-17T21:34:06.478Z,6.68
2022-11-17T21:36:34.709Z,6.53
2022-11-17T21:39:01.620Z,6.32
2022-11-17T21:41:30.212Z,6.36
2022-11-17T21:44:01.992Z,6.45
2022-11-17T21:46:31.370Z,6.54
2022-11-17T21:48:59.639Z,6.39
2022-11-17T21:51:34.609Z,6.48
2022-11-17T21:54:03.649Z,6.48
2022-11-17T21:56:31.832Z,6.52
2022-11-17T21:59:04.806Z,6.42
2022-11-17T22:01:33.948Z,6.38
2022-11-17T22:04:01.127Z,6.31
2022-11-17T22:06:30.248Z,6.29
2022-11-17T22:08:59.326Z,6.31
2022-11-17T22:11:35.589Z,6.37
2022-11-17T22:14:16.293Z,6.26
2022-11-17T22:17:02.794Z,6.20
2022-11-17T22:19:34.723Z,6.20
2022-11-17T22:22:01.461Z,6.17
2022-11-17T22:24:28.240Z,6.16
2022-11-17T22:26:55.296Z,6.12
2022-11-17T22:29:22.729Z,6.06
2022-11-17T22:31:50.095Z,6.04
2022-11-17T22:34:20.379Z,5.98
2022-11-17T22:36:47.528Z,5.92
2022-11-17T22:39:15.726Z,5.84
2022-11-17T22:41:42.712Z,5.82
2022-11-17T22:44:18.584Z,5.86
2022-11-17T22:46:47.842Z,5.88
2022-11-17T22:49:15.141Z,5.73
2022-11-17T22:52:00.689Z,5.57
2022-11-17T22:54:38.618Z,5.68
2022-11-17T23:00:05.857Z,5.62
2022-11-17T23:02:40.588Z,5.59
2022-11-17T23:05:10.131Z,5.60
2022-11-17T23:07:37.160Z,5.47
2022-11-17T23:10:04.218Z,5.53
2022-11-17T23:12:39.864Z,5.42
2022-11-17T23:15:07.476Z,5.46
2022-11-17T23:17:34.877Z,5.54
2022-11-17T23:20:07.787Z,5.52
2022-11-17T23:22:34.946Z,5.56
2022-11-17T23:25:03.358Z,5.59
2022-11-17T23:27:30.095Z,5.43
2022-11-17T23:29:57.350Z,5.45
2022-11-17T23:33:10.747Z,5.46
2022-11-17T23:35:48.894Z,5.51
2022-11-17T23:38:15.649Z,5.61
2022-11-17T23:40:42.887Z,5.64
2022-11-17T23:43:11.763Z,5.61
2022-11-17T23:45:41.095Z,5.52
2022-11-17T23:48:07.905Z,5.50
2022-11-17T23:50:37.278Z,5.51
2022-11-17T23:53:05.584Z,5.51
2022-11-17T23:55:32.643Z,5.48
2022-11-17T23:57:59.661Z,5.42
